createdAt,value
2022-08-27T00:05:09.620Z,626.13
2022-08-27T00:10:20.143Z,860.88
2022-08-27T00:15:28.272Z,407.10
2022-08-27T00:20:32.947Z,202.95
2022-08-27T00:25:40.545Z,209.02
2022-08-27T00:30:45.064Z,356.83
2022-08-27T00:35:50.109Z,52.63
2022-08-27T00:40:57.409Z,80.68
2022-08-27T00:46:07.747Z,31.92
2022-08-27T00:51:13.066Z,25.80
2022-08-27T00:56:25.218Z,18.65
2022-08-27T01:01:32.590Z,17.75
2022-08-27T01:06:40.684Z,40.37
2022-08-27T01:11:50.161Z,67.45
2022-08-27T01:16:57.422Z,31.48
2022-08-27T01:22:09.358Z,26.58
2022-08-27T01:27:34.353Z,21.27
2022-08-27T01:32:41.154Z,19.02
2022-08-27T01:37:49.548Z,17.77
2022-08-27T01:43:00.704Z,21.52
2022-08-27T01:48:07.781Z,21.13
2022-08-27T01:53:15.277Z,18.48
2022-08-27T01:58:26.021Z,18.90
2022-08-27T02:03:32.342Z,22.02
2022-08-27T02:08:38.554Z,20.95
2022-08-27T02:13:46.161Z,18.23
2022-08-27T02:18:52.132Z,18.30
2022-08-27T02:23:56.880Z,20.55
2022-08-27T02:29:04.821Z,18.92
2022-08-27T02:34:09.865Z,19.23
2022-08-27T02:39:14.802Z,23.95
2022-08-27T02:44:21.987Z,73.75
2022-08-27T02:49:27.147Z,28.00
2022-08-27T02:54:32.472Z,29.27
2022-08-27T02:59:40.173Z,36.53
2022-08-27T03:04:44.969Z,30.13
2022-08-27T03:09:49.586Z,27.25
2022-08-27T03:14:57.851Z,28.20
2022-08-27T03:20:03.918Z,24.92
2022-08-27T03:25:09.972Z,25.15
2022-08-27T03:30:20.815Z,24.05
2022-08-27T03:35:25.819Z,21.23
2022-08-27T03:40:30.544Z,19.98
2022-08-27T03:45:49.871Z,21.52
2022-08-27T03:51:08.190Z,23.58
2022-08-27T03:56:13.225Z,19.50
2022-08-27T04:01:20.804Z,16.70
2022-08-27T04:06:25.692Z,13.50
2022-08-27T04:11:30.849Z,10.25
2022-08-27T04:16:41.187Z,7.28
2022-08-27T04:21:45.681Z,9.23
2022-08-27T04:26:50.356Z,12.48
2022-08-27T04:31:58.314Z,15.55
2022-08-27T04:37:03.098Z,16.15
2022-08-27T04:42:08.340Z,13.82
2022-08-27T04:47:16.645Z,16.67
2022-08-27T04:52:21.399Z,15.65
2022-08-27T04:57:25.940Z,11.07
2022-08-27T05:02:33.343Z,12.43
2022-08-27T05:07:37.932Z,13.50
2022-08-27T05:12:44.911Z,17.40
2022-08-27T05:17:53.784Z,14.60
2022-08-27T05:23:03.269Z,18.75
2022-08-27T05:28:07.917Z,18.05
2022-08-27T05:33:17.911Z,16.65
2022-08-27T05:38:27.498Z,15.02
2022-08-27T05:43:32.335Z,19.08
2022-08-27T05:48:40.009Z,11.25
2022-08-27T05:53:45.285Z,8.10
2022-08-27T05:59:03.680Z,9.07
2022-08-27T06:04:12.210Z,9.65
2022-08-27T06:09:25.253Z,6.47
2022-08-27T06:14:30.637Z,9.13
2022-08-27T06:19:37.828Z,6.13
2022-08-27T06:24:43.557Z,6.63
2022-08-27T06:29:48.855Z,15.10
2022-08-27T06:34:56.122Z,9.23
2022-08-27T06:40:00.693Z,13.05
2022-08-27T06:45:06.080Z,13.93
2022-08-27T06:50:16.457Z,14.57
2022-08-27T06:55:24.495Z,15.32
2022-08-27T07:00:32.547Z,15.38
2022-08-27T07:05:42.318Z,19.27
2022-08-27T07:10:46.989Z,16.73
2022-08-27T07:15:51.701Z,15.88
2022-08-27T07:20:59.618Z,21.13
2022-08-27T07:26:05.227Z,27.98
2022-08-27T07:31:11.108Z,28.27
2022-08-27T07:36:20.333Z,36.65
2022-08-27T07:41:30.575Z,34.03
2022-08-27T07:46:39.728Z,36.63
2022-08-27T07:51:48.789Z,34.28
2022-08-27T07:56:55.379Z,35.75
2022-08-27T08:02:00.861Z,38.95
2022-08-27T08:07:08.084Z,34.92
2022-08-27T08:12:12.727Z,37.08
2022-08-27T08:17:17.780Z,35.13
2022-08-27T08:22:25.061Z,34.88
2022-08-27T08:27:29.797Z,32.13
2022-08-27T08:32:34.410Z,31.33
2022-08-27T08:37:42.462Z,28.65
2022-08-27T08:42:54.734Z,18.13
2022-08-27T08:48:05.422Z,22.08
2022-08-27T08:53:30.343Z,25.37
2022-08-27T08:58:44.273Z,22.70
2022-08-27T09:03:55.827Z,24.17
2022-08-27T09:09:12.206Z,22.77
2022-08-27T09:15:12.453Z,22.83
2022-08-27T09:22:07.494Z,17.33
2022-08-27T09:34:03.001Z,18.00
2022-08-27T09:58:52.533Z,15.85
2022-08-27T10:23:47.600Z,11.73
2022-08-27T10:29:13.673Z,12.27
2022-08-27T10:34:32.624Z,12.43
2022-08-27T10:39:55.319Z,10.90
2022-08-27T10:45:31.007Z,9.60
2022-08-27T10:50:42.901Z,8.77
2022-08-27T10:55:54.216Z,11.10
2022-08-27T11:01:06.370Z,13.27
2022-08-27T11:06:18.697Z,9.18
2022-08-27T11:12:10.418Z,7.32
2022-08-27T11:17:01.891Z,7.57
2022-08-27T11:22:17.029Z,7.22
2022-08-27T11:27:36.262Z,11.90
2022-08-27T11:32:50.109Z,13.00
2022-08-27T11:38:15.033Z,8.27
2022-08-27T11:43:25.556Z,8.25
2022-08-27T11:48:32.991Z,10.20
2022-08-27T11:53:52.051Z,11.18
2022-08-27T11:59:11.273Z,10.73
2022-08-27T12:04:26.905Z,8.63
2022-08-27T12:09:34.917Z,9.23
2022-08-27T12:14:48.973Z,9.00
2022-08-27T12:20:10.101Z,9.18
2022-08-27T12:25:23.789Z,9.45
2022-08-27T12:30:36.933Z,9.20
2022-08-27T12:35:47.380Z,8.77
2022-08-27T12:40:54.410Z,6.87
2022-08-27T12:46:31.920Z,6.30
2022-08-27T12:51:39.134Z,6.97
2022-08-27T12:56:57.856Z,7.70
2022-08-27T13:02:18.340Z,10.85
2022-08-27T13:07:37.904Z,5.40
2022-08-27T13:12:43.441Z,7.18
2022-08-27T13:17:52.818Z,7.25
2022-08-27T13:22:58.266Z,5.60
2022-08-27T13:28:08.469Z,6.75
2022-08-27T13:33:29.153Z,7.30
2022-08-27T13:38:36.766Z,5.73
2022-08-27T13:43:44.101Z,5.45
2022-08-27T13:48:53.613Z,4.95
2022-08-27T13:54:11.141Z,4.20
2022-08-27T13:59:18.312Z,3.88
2022-08-27T14:04:28.689Z,4.72
2022-08-27T14:09:33.480Z,4.17
2022-08-27T14:14:40.875Z,5.05
2022-08-27T14:19:49.677Z,4.97
2022-08-27T14:24:54.879Z,4.15
2022-08-27T14:29:59.543Z,5.47
2022-08-27T14:35:07.516Z,4.25
2022-08-27T14:40:14.739Z,4.20
2022-08-27T14:45:21.027Z,3.53
2022-08-27T14:50:28.962Z,4.82
2022-08-27T14:55:34.679Z,3.75
2022-08-27T15:00:40.027Z,4.15
2022-08-27T15:05:47.783Z,4.40
2022-08-27T15:10:58.099Z,2.55
2022-08-27T15:16:05.743Z,5.28
2022-08-27T15:21:13.283Z,4.43
2022-08-27T15:26:18.076Z,4.57
2022-08-27T15:31:23.414Z,4.50
2022-08-27T15:36:30.718Z,5.45
2022-08-27T15:41:50.805Z,3.38
2022-08-27T15:47:01.795Z,4.30
2022-08-27T15:52:10.415Z,6.55
2022-08-27T15:57:20.845Z,3.88
2022-08-27T16:02:27.244Z,3.70
2022-08-27T16:07:34.665Z,3.72
2022-08-27T16:12:39.201Z,4.25
2022-08-27T16:17:44.887Z,3.30
2022-08-27T16:22:52.338Z,2.85
2022-08-27T16:28:04.747Z,3.42
2022-08-27T16:33:14.683Z,3.92
2022-08-27T16:38:22.103Z,3.03
2022-08-27T16:43:29.293Z,2.28
2022-08-27T16:48:46.494Z,2.75
2022-08-27T16:53:54.273Z,4.10
2022-08-27T16:58:59.226Z,2.83
2022-08-27T17:04:15.386Z,5.63
2022-08-27T17:09:24.007Z,3.05
2022-08-27T17:14:29.418Z,2.90
2022-08-27T17:19:35.047Z,4.75
2022-08-27T17:24:43.034Z,2.08
2022-08-27T17:29:47.618Z,3.55
2022-08-27T17:34:52.186Z,2.92
2022-08-27T17:40:00.242Z,3.60
2022-08-27T17:45:06.873Z,2.45
2022-08-27T17:50:12.692Z,3.63
2022-08-27T17:55:20.377Z,2.97
2022-08-27T18:00:25.183Z,3.33
2022-08-27T18:05:30.382Z,4.13
2022-08-27T18:10:38.879Z,3.38
2022-08-27T18:15:45.641Z,3.25
2022-08-27T18:20:50.291Z,4.55
2022-08-27T18:25:59.917Z,3.33
2022-08-27T18:31:06.519Z,4.93
2022-08-27T18:36:12.147Z,5.03
2022-08-27T18:41:20.379Z,4.32
2022-08-27T18:46:25.528Z,3.63
2022-08-27T18:51:31.411Z,4.68
2022-08-27T18:56:45.874Z,3.50
2022-08-27T19:01:50.608Z,4.30
2022-08-27T19:06:56.595Z,5.00
2022-08-27T19:12:04.494Z,4.03
2022-08-27T19:17:10.600Z,5.47
2022-08-27T19:22:15.230Z,7.40
2022-08-27T19:27:26.561Z,4.70
2022-08-27T19:37:45.295Z,4.90
2022-08-27T19:48:04.166Z,6.68
2022-08-27T19:53:10.832Z,4.70
2022-08-27T19:58:22.252Z,5.18
2022-08-27T20:03:26.775Z,6.00
2022-08-27T20:08:31.774Z,7.25
2022-08-27T20:13:40.756Z,6.40
2022-08-27T20:18:58.394Z,7.95
2022-08-27T20:24:06.180Z,7.10
2022-08-27T20:29:14.938Z,6.28
2022-08-27T20:34:39.670Z,4.35
2022-08-27T20:39:44.588Z,7.35
2022-08-27T20:44:52.507Z,6.22
2022-08-27T20:49:57.547Z,6.97
2022-08-27T20:55:02.252Z,9.00
2022-08-27T21:00:24.015Z,5.32
2022-08-27T21:05:28.771Z,7.40
2022-08-27T21:10:33.800Z,7.40
2022-08-27T21:15:41.228Z,8.45
2022-08-27T21:20:45.990Z,7.03
2022-08-27T21:25:51.482Z,6.47
2022-08-27T21:30:58.895Z,8.63
2022-08-27T21:36:04.122Z,8.85
2022-08-27T21:41:09.139Z,5.25
2022-08-27T21:46:16.456Z,5.95
2022-08-27T21:51:24.675Z,6.63
2022-08-27T21:56:30.082Z,6.15
2022-08-27T22:01:37.746Z,9.10
2022-08-27T22:06:42.800Z,6.60
2022-08-27T22:11:47.496Z,8.95
2022-08-27T22:16:54.838Z,10.23
2022-08-27T22:21:59.719Z,6.22
2022-08-27T22:27:04.687Z,7.38
2022-08-27T22:32:11.974Z,7.70
2022-08-27T22:37:16.931Z,6.85
2022-08-27T22:42:21.783Z,9.32
2022-08-27T22:47:29.223Z,8.02
2022-08-27T22:52:34.407Z,7.78
2022-08-27T22:57:39.064Z,5.47
2022-08-27T23:02:46.230Z,6.88
2022-08-27T23:07:50.965Z,7.45
2022-08-27T23:12:56.568Z,6.55
2022-08-27T23:18:04.257Z,7.65
2022-08-27T23:23:10.217Z,7.15
2022-08-27T23:28:16.862Z,9.32
2022-08-27T23:33:24.810Z,7.78
2022-08-27T23:38:30.529Z,6.75
2022-08-27T23:43:35.148Z,8.65
2022-08-27T23:48:42.273Z,9.00
2022-08-27T23:53:46.811Z,7.05
2022-08-27T23:58:51.721Z,8.00
